Bloedel, Canada
Current Conditions -  °F | °C
As of 9:00 PM on Friday 19 Dec 2014 (Local Time) from CYBL Reporting Station
Rain Showers Rain Showers  
Wind Chill: 36°   Ceiling: 1000
Heat Index: 43°   Visibility: 10mi
Dew Point: 41°   Wind: 14mph
Humidity: 93%   Direction: 150°SSE
Pressure: 29.72"   Gusts: NA
Location:  50.12°N, 125.38°W
Report Text: CYBL 200500Z 15012KT 10SM -SHRA BKN010 OVC040 06/05 A2972 RMK SC5SC3 LAST OBS/NEXT 201400 UTC SLP068
Loading
Personal Weather Stations






























Interactive Weather Map New forecast layout! Learn more

10-Day Weather Forecast

Advertisements
Track Severe Weather on mobile